Time,TemperatureF,DewpointF,PressureIn,WindDirection,WindDirectionDegrees,WindSpeedMPH,WindSpeedGustMPH,Humidity,HourlyPrecipIn,Conditions,Clouds,dailyrainin,SoftwareType,DateUTC
2013-07-28 00:02:00,63.0,45.0,-100.00,West,265,4.0,7.0,52,-99.99,,,-99.99,,2013-07-28 06:02:00,
2013-07-28 00:12:00,62.0,45.0,-100.00,NW,305,1.0,4.0,54,-99.99,,,-99.99,,2013-07-28 06:12:00,
2013-07-28 00:32:00,62.0,46.0,-100.00,South,175,4.0,5.0,55,-99.99,,,-99.99,,2013-07-28 06:32:00,
2013-07-28 00:42:00,61.0,46.0,-100.00,South,180,5.0,6.0,58,-99.99,,,-99.99,,2013-07-28 06:42:00,
2013-07-28 00:52:00,60.0,46.0,-100.00,South,180,6.0,7.0,59,-99.99,,,-99.99,,2013-07-28 06:52:00,
2013-07-28 01:02:00,59.0,46.0,-100.00,SSW,205,7.0,9.0,60,-99.99,,,-99.99,,2013-07-28 07:02:00,
2013-07-28 01:12:00,59.0,45.0,-100.00,SW,220,10.0,11.0,59,-99.99,,,-99.99,,2013-07-28 07:12:00,
2013-07-28 01:43:00,59.0,44.0,-100.00,West,270,10.0,11.0,56,-99.99,,,-99.99,,2013-07-28 07:43:00,
2013-07-28 01:53:00,59.0,43.0,-100.00,West,275,8.0,11.0,55,-99.99,,,-99.99,,2013-07-28 07:53:00,
2013-07-28 02:02:00,60.0,44.0,-100.00,West,280,6.0,9.0,54,-99.99,,,-99.99,,2013-07-28 08:02:00,
2013-07-28 02:12:00,60.0,44.0,-100.00,West,280,5.0,7.0,53,-99.99,,,-99.99,,2013-07-28 08:12:00,
2013-07-28 02:42:00,59.0,44.0,-100.00,South,190,7.0,7.0,58,-99.99,,,-99.99,,2013-07-28 08:42:00,
2013-07-28 03:02:00,59.0,44.0,-100.00,SSW,205,7.0,9.0,58,-99.99,,,-99.99,,2013-07-28 09:02:00,
2013-07-28 03:12:00,60.0,44.0,-100.00,SSW,205,3.0,8.0,55,-99.99,,,-99.99,,2013-07-28 09:12:00,
2013-07-28 03:43:00,58.0,44.0,-100.00,South,175,2.0,4.0,58,-99.99,,,-99.99,,2013-07-28 09:43:00,
2013-07-28 04:02:00,58.0,45.0,-100.00,SSW,205,1.0,4.0,60,-99.99,,,-99.99,,2013-07-28 10:02:00,
2013-07-28 04:42:00,58.0,44.0,-100.00,SSW,200,3.0,5.0,59,-99.99,,,-99.99,,2013-07-28 10:42:00,
2013-07-28 04:52:00,58.0,44.0,-100.00,SW,225,3.0,4.0,59,-99.99,,,-99.99,,2013-07-28 10:52:00,
2013-07-28 05:33:00,58.0,43.0,-100.00,WSW,250,3.0,4.0,56,-99.99,,,-99.99,,2013-07-28 11:33:00,
2013-07-28 05:43:00,58.0,43.0,-100.00,SW,220,4.0,4.0,57,-99.99,,,-99.99,,2013-07-28 11:43:00,
2013-07-28 05:53:00,58.0,43.0,-100.00,SSW,200,9.0,9.0,56,-99.99,,,-99.99,,2013-07-28 11:53:00,
2013-07-28 06:02:00,57.0,43.0,-100.00,South,190,10.0,11.0,60,-99.99,,,-99.99,,2013-07-28 12:02:00,
2013-07-28 06:33:00,57.0,43.0,-100.00,NNW,345,0.0,3.0,59,-99.99,,,-99.99,,2013-07-28 12:33:00,
2013-07-28 06:43:00,56.0,44.0,-100.00,South,180,6.0,6.0,63,-99.99,,,-99.99,,2013-07-28 12:43:00,
2013-07-28 07:02:00,59.0,44.0,-100.00,West,275,0.0,4.0,57,-99.99,,,-99.99,,2013-07-28 13:02:00,
2013-07-28 07:12:00,60.0,44.0,-100.00,SSE,155,3.0,4.0,56,-99.99,,,-99.99,,2013-07-28 13:12:00,
2013-07-28 07:43:00,60.0,45.0,-100.00,SE,135,2.0,4.0,57,-99.99,,,-99.99,,2013-07-28 13:43:00,
2013-07-28 08:02:00,59.0,46.0,-100.00,SE,140,5.0,6.0,63,-99.99,,,-99.99,,2013-07-28 14:02:00,
2013-07-28 08:43:00,60.0,47.0,-100.00,South,190,4.0,4.0,62,-99.99,,,-99.99,,2013-07-28 14:43:00,
2013-07-28 10:43:00,73.0,44.0,-100.00,North,10,5.0,11.0,35,-99.99,,,-99.99,,2013-07-28 16:43:00,
2013-07-28 11:02:00,74.0,44.0,-100.00,East,85,2.0,9.0,33,-99.99,,,-99.99,,2013-07-28 17:02:00,
2013-07-28 11:43:00,77.0,44.0,-100.00,WNW,300,2.0,9.0,31,-99.99,,,-99.99,,2013-07-28 17:43:00,
2013-07-28 12:03:00,79.0,44.0,-100.00,NNE,20,3.0,11.0,29,-99.99,,,-99.99,,2013-07-28 18:03:00,
2013-07-28 12:12:00,77.0,43.0,-100.00,NNE,25,7.0,9.0,29,-99.99,,,-99.99,,2013-07-28 18:12:00,
2013-07-28 12:33:00,77.0,44.0,-100.00,NNE,20,9.0,15.0,30,-99.99,,,-99.99,,2013-07-28 18:33:00,
2013-07-28 12:43:00,76.0,43.0,-100.00,WSW,245,4.0,9.0,30,-99.99,,,-99.99,,2013-07-28 18:43:00,
2013-07-28 13:02:00,74.0,42.0,-100.00,NNE,15,4.0,9.0,31,-99.99,,,-99.99,,2013-07-28 19:02:00,
2013-07-28 13:12:00,75.0,42.0,-100.00,NNE,25,2.0,5.0,31,-99.99,,,-99.99,,2013-07-28 19:12:00,
2013-07-28 13:43:00,74.0,43.0,-100.00,ENE,70,6.0,10.0,33,-99.99,,,-99.99,,2013-07-28 19:43:00,
2013-07-28 14:02:00,77.0,44.0,-100.00,NE,45,8.0,16.0,31,-99.99,,,-99.99,,2013-07-28 20:02:00,
2013-07-28 14:12:00,75.0,43.0,-100.00,North,0,7.0,15.0,31,-99.99,,,-99.99,,2013-07-28 20:12:00,
2013-07-28 14:43:00,74.0,43.0,-100.00,North,10,20.0,24.0,33,-99.99,,,-99.99,,2013-07-28 20:43:00,
2013-07-28 15:33:00,61.0,44.0,-100.00,NW,315,33.0,42.0,53,-99.99,,,-99.99,,2013-07-28 21:33:00,
2013-07-28 16:02:00,59.0,51.0,-100.00,West,280,15.0,24.0,76,-99.99,,,-99.99,,2013-07-28 22:02:00,
2013-07-28 16:43:00,68.0,51.0,-100.00,NNW,340,13.0,14.0,54,-99.99,,,-99.99,,2013-07-28 22:43:00,
2013-07-28 17:03:00,68.0,49.0,-100.00,NNE,15,11.0,18.0,51,-99.99,,,-99.99,,2013-07-28 23:03:00,
2013-07-28 17:43:00,71.0,48.0,-100.00,NNE,25,2.0,5.0,44,-99.99,,,-99.99,,2013-07-28 23:43:00,
2013-07-28 18:12:00,65.0,49.0,-100.00,NNW,345,24.0,34.0,55,-99.99,,,-99.99,,2013-07-29 00:12:00,
2013-07-28 18:32:00,61.0,50.0,-100.00,NW,325,24.0,38.0,66,-99.99,,,-99.99,,2013-07-29 00:32:00,
2013-07-28 19:02:00,60.0,50.0,-100.00,NNW,335,21.0,26.0,69,-99.99,,,-99.99,,2013-07-29 01:02:00,
2013-07-28 19:12:00,60.0,50.0,-100.00,North,350,19.0,24.0,68,-99.99,,,-99.99,,2013-07-29 01:12:00,
2013-07-28 19:43:00,59.0,49.0,-100.00,NW,315,7.0,15.0,68,-99.99,,,-99.99,,2013-07-29 01:43:00,
2013-07-28 20:04:00,60.0,49.0,-100.00,West,260,8.0,11.0,66,-99.99,,,-99.99,,2013-07-29 02:04:00,
2013-07-28 20:45:00,61.0,49.0,-100.00,SSW,195,15.0,17.0,64,-99.99,,,-99.99,,2013-07-29 02:45:00,
2013-07-28 21:15:00,60.0,48.0,-100.00,SW,220,17.0,18.0,63,-99.99,,,-99.99,,2013-07-29 03:15:00,
2013-07-28 21:46:00,61.0,48.0,-100.00,WSW,245,4.0,13.0,61,-99.99,,,-99.99,,2013-07-29 03:46:00,
2013-07-28 22:02:00,63.0,46.0,-100.00,WSW,245,9.0,16.0,53,-99.99,,,-99.99,,2013-07-29 04:02:00,
2013-07-28 22:43:00,63.0,45.0,-100.00,SW,235,13.0,14.0,52,-99.99,,,-99.99,,2013-07-29 04:43:00,
2013-07-28 23:02:00,63.0,45.0,-100.00,WSW,255,7.0,14.0,51,-99.99,,,-99.99,,2013-07-29 05:02:00,
2013-07-28 23:42:00,56.0,50.0,-100.00,NW,315,7.0,13.0,79,-99.99,,,-99.99,,2013-07-29 05:42:00,